Time;durP1;ratioP1;P1;durP2;ratioP2;P2;SDS_P1;SDS_P2;PMS_P1;PMS_P2;Temp;Humidity;BMP_temperature;BMP_pressure;BME280_temperature;BME280_humidity;BME280_pressure;Samples;Min_cycle;Max_cycle;Signal;HPM_P1;HPM_P2
2021/07/06 00:00:18;;;;;;;;;;;;;;;;;;5096547;28;19954;-72
2021/07/06 00:02:45;;;;;;;;;;;;;;;;;;5100683;28;19928;-73
2021/07/06 00:05:12;;;;;;;;;;;;;;;;;;5095325;28;19924;-72
2021/07/06 00:07:39;;;;;;;;;;;;;;;;;;5100415;28;19930;-73
2021/07/06 00:10:06;;;;;;;;;;;;;;;;;;5096426;28;20378;-72
2021/07/06 00:12:33;;;;;;;;;;;;;;;;;;5098532;28;20014;-72
2021/07/06 00:15:00;;;;;;;;;;;;;;;;;;5101704;28;19991;-73
2021/07/06 00:17:27;;;;;;;;;;;;;;;;;;5096953;28;20419;-72
2021/07/06 00:19:54;;;;;;;;;;;;;;;;;;5098462;28;19978;-70
2021/07/06 00:22:21;;;;;;;;;;;;;;;;;;5100976;28;19928;-72
2021/07/06 00:24:48;;;;;;;;;;;;;;;;;;5095878;28;20102;-73
2021/07/06 00:27:15;;;;;;;;;;;;;;;;;;5100943;28;20390;-71
2021/07/06 00:29:42;;;;;;;;;;;;;;;;;;5098605;28;19959;-74
2021/07/06 00:32:09;;;;;;;;;;;;;;;;;;5095673;28;19924;-73
2021/07/06 00:34:36;;;;;;;;;;;;;;;;;;5105075;28;20019;-72
2021/07/06 00:37:03;;;;;;;;;;;;;;;;;;5099282;28;19924;-73
2021/07/06 00:39:30;;;;;;;;;;;;;;;;;;5097992;28;19924;-73
2021/07/06 00:41:57;;;;;;;;;;;;;;;;;;5095770;28;20004;-72
2021/07/06 00:44:24;;;;;;;;;;;;;;;;;;5094813;28;19932;-72
2021/07/06 00:46:51;;;;;;;;;;;;;;;;;;5088226;28;20015;-71
2021/07/06 00:49:18;;;;;;;;;;;;;;;;;;5095167;28;20001;-73
2021/07/06 00:51:45;;;;;;;;;;;;;;;;;;5098291;28;20323;-71
2021/07/06 00:54:12;;;;;;;;;;;;;;;;;;5094545;28;19955;-72
2021/07/06 00:56:40;;;;;;;;;;;;;;;;;;5091725;28;19954;-72
2021/07/06 00:59:07;;;;;;;;;;;;;;;;;;5091548;28;19924;-71
2021/07/06 01:01:34;;;;;;;;;;;;;;;;;;5096543;28;19931;-70
2021/07/06 01:04:01;;;;;;;;;;;;;;;;;;5098982;28;19954;-72
2021/07/06 01:06:28;;;;;;;;;;;;;;;;;;5092211;28;19924;-73
2021/07/06 01:08:55;;;;;;;;;;;;;;;;;;5097471;28;19931;-72
2021/07/06 01:11:22;;;;;;;;;;;;;;;;;;5096670;28;19924;-71
2021/07/06 01:13:49;;;;;;;;;;;;;;;;;;5094305;28;20330;-71
2021/07/06 01:16:16;;;;;;;;;;;;;;;;;;5093376;28;19928;-72
2021/07/06 01:18:43;;;;;;;;;;;;;;;;;;5093943;28;19924;-72
2021/07/06 01:21:10;;;;;;;;;;;;;;;;;;5093705;28;20397;-72
2021/07/06 01:23:37;;;;;;;;;;;;;;;;;;5093536;28;19924;-71
2021/07/06 01:26:04;;;;;;;;;;;;;;;;;;5101224;28;19928;-71
2021/07/06 01:28:31;;;;;;;;;;;;;;;;;;5102172;28;19925;-72
2021/07/06 01:30:58;;;;;;;;;;;;;;;;;;5102004;28;19993;-71
2021/07/06 01:33:25;;;;;;;;;;;;;;;;;;5095987;28;19948;-72
2021/07/06 01:35:52;;;;;;;;;;;;;;;;;;5098089;28;19928;-72
2021/07/06 01:38:19;;;;;;;;;;;;;;;;;;5103256;28;19977;-72
2021/07/06 01:40:46;;;;;;;;;;;;;;;;;;5094129;28;20325;-71
2021/07/06 01:43:13;;;;;;;;;;;;;;;;;;5088508;28;19924;-71
2021/07/06 01:45:41;;;;;;;;;;;;;;;;;;5091976;28;20027;-73
2021/07/06 01:48:08;;;;;;;;;;;;;;;;;;5097051;28;20019;-72
2021/07/06 01:50:35;;;;;;;;;;;;;;;;;;5094928;28;19971;-71
2021/07/06 01:53:02;;;;;;;;;;;;;;;;;;5096495;28;19932;-71
2021/07/06 01:55:29;;;;;;;;;;;;;;;;;;5097286;28;20027;-72
2021/07/06 01:57:56;;;;;;;;;;;;;;;;;;5084148;28;20011;-70
2021/07/06 02:00:23;;;;;;;;;;;;;;;;;;5102185;28;19955;-69
2021/07/06 02:02:50;;;;;;;;;;;;;;;;;;5107046;28;19987;-71
2021/07/06 02:05:17;;;;;;;;;;;;;;;;;;5105828;28;19939;-71
2021/07/06 02:07:44;;;;;;;;;;;;;;;;;;5101893;28;20003;-69
2021/07/06 02:10:11;;;;;;;;;;;;;;;;;;5103187;28;19979;-68
2021/07/06 02:12:38;;;;;;;;;;;;;;;;;;5103779;28;19924;-68
2021/07/06 02:15:05;;;;;;;;;;;;;;;;;;5102863;28;19952;-69
2021/07/06 02:17:32;;;;;;;;;;;;;;;;;;5099627;28;19925;-69
2021/07/06 02:19:59;;;;;;;;;;;;;;;;;;5103440;28;19924;-68
2021/07/06 02:22:26;;;;;;;;;;;;;;;;;;5099378;28;19992;-68
2021/07/06 02:24:53;;;;;;;;;;;;;;;;;;5099019;28;19956;-69
2021/07/06 02:27:20;;;;;;;;;;;;;;;;;;5097763;28;20018;-69
2021/07/06 02:29:47;;;;;;;;;;;;;;;;;;5096914;28;19920;-70
2021/07/06 02:32:13;;;;;;;;;;;;;;;;;;5105142;28;19959;-67
2021/07/06 02:34:40;;;;;;;;;;;;;;;;;;5104619;28;19983;-69
2021/07/06 02:37:07;;;;;;;;;;;;;;;;;;5100318;28;19991;-68
2021/07/06 02:39:34;;;;;;;;;;;;;;;;;;5096468;28;20023;-69
2021/07/06 02:42:01;;;;;;;;;;;;;;;;;;5108646;28;19946;-69
2021/07/06 02:44:28;;;;;;;;;;;;;;;;;;5106399;28;19952;-70
2021/07/06 02:46:55;;;;;;;;;;;;;;;;;;5100706;28;19979;-69
2021/07/06 02:49:22;;;;;;;;;;;;;;;;;;5100698;28;19989;-69
2021/07/06 02:51:49;;;;;;;;;;;;;;;;;;5105124;28;20027;-69
2021/07/06 02:54:16;;;;;;;;;;;;;;;;;;5103984;28;19959;-70
2021/07/06 02:56:43;;;;;;;;;;;;;;;;;;5100259;28;19963;-70
2021/07/06 02:59:10;;;;;;;;;;;;;;;;;;5095562;28;20011;-70
2021/07/06 03:01:37;;;;;;;;;;;;;;;;;;5094015;28;19968;-71
2021/07/06 03:04:04;;;;;;;;;;;;;;;;;;5091001;28;20022;-71
2021/07/06 03:06:31;;;;;;;;;;;;;;;;;;5097008;28;19925;-70
2021/07/06 03:08:59;;;;;;;;;;;;;;;;;;5097362;28;19974;-72
2021/07/06 03:11:26;;;;;;;;;;;;;;;;;;5103502;28;19983;-72
2021/07/06 03:13:53;;;;;;;;;;;;;;;;;;5102776;28;19975;-70
2021/07/06 03:16:20;;;;;;;;;;;;;;;;;;5101852;28;19955;-69
2021/07/06 03:18:47;;;;;;;;;;;;;;;;;;5104103;28;19946;-71
2021/07/06 03:21:14;;;;;;;;;;;;;;;;;;5099997;28;19924;-71
2021/07/06 03:23:41;;;;;;;;;;;;;;;;;;5109019;28;20055;-72
2021/07/06 03:26:08;;;;;;;;;;;;;;;;;;5106172;28;19995;-70
2021/07/06 03:28:38;;;;;;;;;;;;;;;;;;5095080;28;20020;-73
2021/07/06 03:31:05;;;;;;;;;;;;;;;;;;5100630;28;19930;-73
2021/07/06 03:33:32;;;;;;;;;;;;;;;;;;5093200;28;19932;-70
2021/07/06 03:35:59;;;;;;;;;;;;;;;;;;5100344;22;19928;-66
2021/07/06 03:38:26;;;;;;;;;;;;;;;;;;5071835;28;19925;-66
2021/07/06 03:40:53;;;;;;;;;;;;;;;;;;5071655;28;19925;-66
2021/07/06 03:43:19;;;;;;;;;;;;;;;;;;5071236;28;19932;-66
2021/07/06 03:45:46;;;;;;;;;;;;;;;;;;5077288;28;19947;-65
2021/07/06 03:48:13;;;;;;;;;;;;;;;;;;5090174;28;19932;-66
2021/07/06 03:50:40;;;;;;;;;;;;;;;;;;5084337;28;19951;-66
2021/07/06 03:53:07;;;;;;;;;;;;;;;;;;5083497;28;19924;-66
2021/07/06 03:55:34;;;;;;;;;;;;;;;;;;5083442;28;20371;-64
2021/07/06 03:58:01;;;;;;;;;;;;;;;;;;5084558;28;19930;-66
2021/07/06 04:00:28;;;;;;;;;;;;;;;;;;5083439;28;19939;-66
2021/07/06 04:02:55;;;;;;;;;;;;;;;;;;5087700;28;19924;-66
2021/07/06 04:05:22;;;;;;;;;;;;;;;;;;5085933;28;19947;-66
2021/07/06 04:07:49;;;;;;;;;;;;;;;;;;5082840;28;19928;-65
2021/07/06 04:10:16;;;;;;;;;;;;;;;;;;5088359;28;20345;-66
2021/07/06 04:12:43;;;;;;;;;;;;;;;;;;5083916;28;20437;-66
2021/07/06 04:15:10;;;;;;;;;;;;;;;;;;5080724;28;20323;-66
2021/07/06 04:17:37;;;;;;;;;;;;;;;;;;5085274;28;19924;-65
2021/07/06 04:20:04;;;;;;;;;;;;;;;;;;5085024;28;20014;-65
2021/07/06 04:22:31;;;;;;;;;;;;;;;;;;5086696;28;19943;-65
2021/07/06 04:24:58;;;;;;;;;;;;;;;;;;5085763;28;19924;-66
2021/07/06 04:27:25;;;;;;;;;;;;;;;;;;5087870;28;19934;-66
2021/07/06 04:29:52;;;;;;;;;;;;;;;;;;5083401;28;20397;-66
2021/07/06 04:32:19;;;;;;;;;;;;;;;;;;5090084;28;19979;-65
2021/07/06 04:34:46;;;;;;;;;;;;;;;;;;5083505;28;19924;-65
2021/07/06 04:37:13;;;;;;;;;;;;;;;;;;5083395;28;19954;-65
2021/07/06 04:39:40;;;;;;;;;;;;;;;;;;5083322;28;19931;-67
2021/07/06 04:42:07;;;;;;;;;;;;;;;;;;5079880;28;19931;-67
2021/07/06 04:44:34;;;;;;;;;;;;;;;;;;5080386;28;20358;-67
2021/07/06 04:47:01;;;;;;;;;;;;;;;;;;5079511;28;19924;-67
2021/07/06 04:49:28;;;;;;;;;;;;;;;;;;5083182;28;19924;-66
2021/07/06 04:51:55;;;;;;;;;;;;;;;;;;5080884;28;19924;-66
2021/07/06 04:54:24;;;;;;;;;;;;;;;;;;5078833;28;20329;-66
2021/07/06 04:56:51;;;;;;;;;;;;;;;;;;5077296;28;19925;-66
2021/07/06 04:59:18;;;;;;;;;;;;;;;;;;5082093;28;19932;-65
2021/07/06 05:01:45;;;;;;;;;;;;;;;;;;5081478;28;19931;-65
2021/07/06 05:04:12;;;;;;;;;;;;;;;;;;5078039;28;20375;-65
2021/07/06 05:06:39;;;;;;;;;;;;;;;;;;5082073;28;20112;-66
2021/07/06 05:09:06;;;;;;;;;;;;;;;;;;5083672;28;19950;-66
2021/07/06 05:11:33;;;;;;;;;;;;;;;;;;5085518;28;19924;-66
2021/07/06 05:14:01;;;;;;;;;;;;;;;;;;5085428;28;20023;-66
2021/07/06 05:16:30;;;;;;;;;;;;;;;;;;5082906;28;19924;-66
2021/07/06 05:18:57;;;;;;;;;;;;;;;;;;5085117;28;19982;-66
2021/07/06 05:21:24;;;;;;;;;;;;;;;;;;5077915;28;19924;-66
2021/07/06 05:23:51;;;;;;;;;;;;;;;;;;5076035;28;19932;-64
2021/07/06 05:26:18;;;;;;;;;;;;;;;;;;5076718;28;19928;-67
2021/07/06 05:28:45;;;;;;;;;;;;;;;;;;5085551;28;20410;-65
2021/07/06 05:31:12;;;;;;;;;;;;;;;;;;5084954;28;19924;-64
2021/07/06 05:33:39;;;;;;;;;;;;;;;;;;5083115;28;19924;-65
2021/07/06 05:36:06;;;;;;;;;;;;;;;;;;5088148;28;19924;-65
2021/07/06 05:38:34;;;;;;;;;;;;;;;;;;5087615;28;20105;-66
2021/07/06 05:41:02;;;;;;;;;;;;;;;;;;5088170;28;20014;-66
2021/07/06 05:43:29;;;;;;;;;;;;;;;;;;5087497;28;20307;-65
2021/07/06 05:45:56;;;;;;;;;;;;;;;;;;5087085;28;19930;-67
2021/07/06 05:48:23;;;;;;;;;;;;;;;;;;5088396;28;19930;-65
2021/07/06 05:50:50;;;;;;;;;;;;;;;;;;5088215;28;19928;-65
2021/07/06 05:53:17;;;;;;;;;;;;;;;;;;5089226;28;19927;-64
2021/07/06 05:55:44;;;;;;;;;;;;;;;;;;5086286;28;20379;-67
2021/07/06 05:58:11;;;;;;;;;;;;;;;;;;5088739;28;19947;-67
2021/07/06 06:00:38;;;;;;;;;;;;;;;;;;5087511;28;19932;-67
2021/07/06 06:03:08;;;;;;;;;;;;;;;;;;5086917;28;19928;-67
2021/07/06 06:05:35;;;;;;;;;;;;;;;;;;5084709;28;20273;-67
2021/07/06 06:08:02;;;;;;;;;;;;;;;;;;5089403;28;19924;-65
2021/07/06 06:10:29;;;;;;;;;;;;;;;;;;5085683;28;19930;-67
2021/07/06 06:12:56;;;;;;;;;;;;;;;;;;5089176;28;19935;-66
2021/07/06 06:15:23;;;;;;;;;;;;;;;;;;5086835;28;19937;-65
2021/07/06 06:17:50;;;;;;;;;;;;;;;;;;5082043;28;19939;-66
2021/07/06 06:20:17;;;;;;;;;;;;;;;;;;5084739;28;20379;-65
2021/07/06 06:22:44;;;;;;;;;;;;;;;;;;5088156;28;19928;-66
2021/07/06 06:25:11;;;;;;;;;;;;;;;;;;5088451;28;19928;-66
2021/07/06 06:27:37;;;;;;;;;;;;;;;;;;5084321;28;19924;-66
2021/07/06 06:30:04;;;;;;;;;;;;;;;;;;5086875;28;19931;-65
2021/07/06 06:32:31;;;;;;;;;;;;;;;;;;5088522;28;19931;-66
2021/07/06 06:34:58;;;;;;;;;;;;;;;;;;5085251;28;19925;-66
2021/07/06 06:37:25;;;;;;;;;;;;;;;;;;5090878;28;19927;-66
2021/07/06 06:39:52;;;;;;;;;;;;;;;;;;5086623;28;19924;-67
2021/07/06 06:42:19;;;;;;;;;;;;;;;;;;5091426;28;19924;-67
2021/07/06 06:44:46;;;;;;;;;;;;;;;;;;5090804;28;19932;-66
2021/07/06 06:47:14;;;;;;;;;;;;;;;;;;5089124;28;19924;-65
2021/07/06 06:49:41;;;;;;;;;;;;;;;;;;5086288;28;20015;-65
2021/07/06 06:52:08;;;;;;;;;;;;;;;;;;5081124;28;19924;-66
2021/07/06 06:54:35;;;;;;;;;;;;;;;;;;5090188;28;19924;-65
2021/07/06 06:57:02;;;;;;;;;;;;;;;;;;5088060;28;19925;-68
2021/07/06 06:59:29;;;;;;;;;;;;;;;;;;5091705;28;19939;-66
2021/07/06 07:04:37;;;;;;;;;;;;;;;;;;5087459;28;19920;-67
2021/07/06 07:07:04;;;;;;;;;;;;;;;;;;5090145;28;19930;-69
2021/07/06 07:09:31;;;;;;;;;;;;;;;;;;5090398;28;19935;-66
2021/07/06 07:11:58;;;;;;;;;;;;;;;;;;5088350;28;20038;-65
2021/07/06 07:14:25;;;;;;;;;;;;;;;;;;5083913;28;20016;-67
2021/07/06 07:16:52;;;;;;;;;;;;;;;;;;5089811;28;19924;-66
2021/07/06 07:19:19;;;;;;;;;;;;;;;;;;5085638;28;20480;-67
2021/07/06 07:21:46;;;;;;;;;;;;;;;;;;5093313;28;20298;-67
2021/07/06 07:24:13;;;;;;;;;;;;;;;;;;5088678;28;19924;-66
2021/07/06 07:26:40;;;;;;;;;;;;;;;;;;5090795;28;19924;-67
2021/07/06 07:29:07;;;;;;;;;;;;;;;;;;5086527;28;19954;-66
2021/07/06 07:31:34;;;;;;;;;;;;;;;;;;5087847;28;19931;-67
2021/07/06 07:34:01;;;;;;;;;;;;;;;;;;5090643;28;20469;-67
2021/07/06 07:36:28;;;;;;;;;;;;;;;;;;5089972;28;19924;-66
2021/07/06 07:38:55;;;;;;;;;;;;;;;;;;5090492;28;19928;-66
2021/07/06 07:41:22;;;;;;;;;;;;;;;;;;5090272;28;20358;-67
2021/07/06 07:43:53;;;;;;;;;;;;;;;;;;5091698;28;19967;-69
2021/07/06 07:46:20;;;;;;;;;;;;;;;;;;5088720;28;19924;-70
2021/07/06 07:48:47;;;;;;;;;;;;;;;;;;5090349;28;19930;-67
2021/07/06 07:51:14;;;;;;;;;;;;;;;;;;5088435;28;19924;-65
2021/07/06 07:53:41;;;;;;;;;;;;;;;;;;5091414;28;19928;-66
2021/07/06 07:56:08;;;;;;;;;;;;;;;;;;5089267;28;20018;-67
2021/07/06 07:58:35;;;;;;;;;;;;;;;;;;5091146;28;20399;-66
2021/07/06 08:01:02;;;;;;;;;;;;;;;;;;5088683;28;20281;-68
2021/07/06 08:03:29;;;;;;;;;;;;;;;;;;5090803;28;19924;-67
2021/07/06 08:05:56;;;;;;;;;;;;;;;;;;5086445;28;20023;-67
2021/07/06 08:08:23;;;;;;;;;;;;;;;;;;5091087;28;20391;-67
2021/07/06 08:10:52;;;;;;;;;;;;;;;;;;5089672;28;19932;-66
2021/07/06 08:13:19;;;;;;;;;;;;;;;;;;5089983;28;19932;-67
2021/07/06 08:15:46;;;;;;;;;;;;;;;;;;5090426;28;19924;-67
2021/07/06 08:18:13;;;;;;;;;;;;;;;;;;5089958;28;20376;-66
2021/07/06 08:20:40;;;;;;;;;;;;;;;;;;5088532;28;19928;-65
2021/07/06 08:23:07;;;;;;;;;;;;;;;;;;5086611;28;20015;-67
2021/07/06 08:25:34;;;;;;;;;;;;;;;;;;5084876;28;19953;-66
2021/07/06 08:28:01;;;;;;;;;;;;;;;;;;5088108;28;19927;-66
2021/07/06 08:30:28;;;;;;;;;;;;;;;;;;5085043;28;19930;-65
2021/07/06 08:32:55;;;;;;;;;;;;;;;;;;5086060;28;19924;-67
2021/07/06 08:35:22;;;;;;;;;;;;;;;;;;5087250;28;20190;-67
2021/07/06 08:37:49;;;;;;;;;;;;;;;;;;5088898;28;19932;-67
2021/07/06 08:40:16;;;;;;;;;;;;;;;;;;5090426;28;20288;-66
2021/07/06 08:42:43;;;;;;;;;;;;;;;;;;5086729;28;19928;-67
2021/07/06 08:45:10;;;;;;;;;;;;;;;;;;5089004;28;19930;-66
2021/07/06 08:47:37;;;;;;;;;;;;;;;;;;5083236;28;20311;-66
2021/07/06 08:50:04;;;;;;;;;;;;;;;;;;5081981;28;19930;-65
2021/07/06 08:52:31;;;;;;;;;;;;;;;;;;5088101;28;20422;-64
2021/07/06 08:54:58;;;;;;;;;;;;;;;;;;5085424;28;19950;-67
2021/07/06 08:57:25;;;;;;;;;;;;;;;;;;5086014;28;19930;-66
2021/07/06 08:59:52;;;;;;;;;;;;;;;;;;5086233;28;20408;-66
2021/07/06 09:02:19;;;;;;;;;;;;;;;;;;5084821;28;19935;-66
2021/07/06 09:04:46;;;;;;;;;;;;;;;;;;5085753;28;19924;-67
2021/07/06 09:07:13;;;;;;;;;;;;;;;;;;5082861;28;19999;-70
2021/07/06 09:09:40;;;;;;;;;;;;;;;;;;5085075;28;19924;-64
2021/07/06 09:12:07;;;;;;;;;;;;;;;;;;5087637;28;20414;-66
2021/07/06 09:14:34;;;;;;;;;;;;;;;;;;5084399;28;19947;-66
2021/07/06 09:17:01;;;;;;;;;;;;;;;;;;5083920;28;19924;-66
2021/07/06 09:19:28;;;;;;;;;;;;;;;;;;5080502;28;20007;-66
2021/07/06 09:21:55;;;;;;;;;;;;;;;;;;5083952;28;19924;-66
2021/07/06 09:24:23;;;;;;;;;;;;;;;;;;5082902;28;19932;-67
2021/07/06 09:26:49;;;;;;;;;;;;;;;;;;5084072;28;19938;-67
2021/07/06 09:29:22;;;;;;;;;;;;;;;;;;5078824;28;19928;-66
2021/07/06 09:31:49;;;;;;;;;;;;;;;;;;5081308;28;19928;-67
2021/07/06 09:34:16;;;;;;;;;;;;;;;;;;5082706;28;20326;-66
2021/07/06 09:36:43;;;;;;;;;;;;;;;;;;5089512;28;20358;-66
2021/07/06 09:39:10;;;;;;;;;;;;;;;;;;5088538;28;20034;-66
2021/07/06 09:41:37;;;;;;;;;;;;;;;;;;5083147;28;19924;-66
2021/07/06 09:44:04;;;;;;;;;;;;;;;;;;5090115;28;19930;-65
2021/07/06 09:46:31;;;;;;;;;;;;;;;;;;5087052;28;19931;-66
2021/07/06 09:48:58;;;;;;;;;;;;;;;;;;5089532;28;19924;-65
2021/07/06 09:51:25;;;;;;;;;;;;;;;;;;5090949;28;19924;-66
2021/07/06 09:53:52;;;;;;;;;;;;;;;;;;5085001;28;20007;-65
2021/07/06 09:56:19;;;;;;;;;;;;;;;;;;5085643;28;19930;-66
2021/07/06 09:58:46;;;;;;;;;;;;;;;;;;5090645;28;19950;-66
2021/07/06 10:01:13;;;;;;;;;;;;;;;;;;5087692;28;20019;-66
2021/07/06 10:03:40;;;;;;;;;;;;;;;;;;5081637;28;20287;-65
2021/07/06 10:06:06;;;;;;;;;;;;;;;;;;5091594;28;20339;-65
2021/07/06 10:08:33;;;;;;;;;;;;;;;;;;5083374;28;19930;-66
2021/07/06 10:11:00;;;;;;;;;;;;;;;;;;5089713;28;19924;-66
2021/07/06 10:13:27;;;;;;;;;;;;;;;;;;5084285;28;19931;-66
2021/07/06 10:15:54;;;;;;;;;;;;;;;;;;5092739;28;20388;-66
2021/07/06 10:18:21;;;;;;;;;;;;;;;;;;5087397;28;19932;-66
2021/07/06 10:20:48;;;;;;;;;;;;;;;;;;5093693;28;20439;-66
2021/07/06 10:23:19;;;;;;;;;;;;;;;;;;5097042;28;19946;-66
2021/07/06 10:25:49;;;;;;;;;;;;;;;;;;5093480;28;19931;-66
2021/07/06 10:28:16;;;;;;;;;;;;;;;;;;5086498;28;19924;-67
2021/07/06 10:30:43;;;;;;;;;;;;;;;;;;5090120;28;20303;-65
2021/07/06 10:33:10;;;;;;;;;;;;;;;;;;5091868;28;19999;-67
2021/07/06 10:35:38;;;;;;;;;;;;;;;;;;5087584;28;19932;-65
2021/07/06 10:38:05;;;;;;;;;;;;;;;;;;5090211;28;19931;-67
2021/07/06 10:40:32;;;;;;;;;;;;;;;;;;5091075;28;20066;-66
2021/07/06 10:42:58;;;;;;;;;;;;;;;;;;5092191;28;19932;-66
2021/07/06 10:45:25;;;;;;;;;;;;;;;;;;5090386;28;19924;-67
2021/07/06 10:47:52;;;;;;;;;;;;;;;;;;5091080;28;19928;-67
2021/07/06 10:50:19;;;;;;;;;;;;;;;;;;5088195;28;19931;-67
2021/07/06 10:52:46;;;;;;;;;;;;;;;;;;5086933;28;19932;-67
2021/07/06 10:55:13;;;;;;;;;;;;;;;;;;5092664;28;19925;-66
2021/07/06 10:57:40;;;;;;;;;;;;;;;;;;5091443;28;20358;-68
2021/07/06 11:00:07;;;;;;;;;;;;;;;;;;5091183;28;19930;-66
2021/07/06 11:02:34;;;;;;;;;;;;;;;;;;5089869;28;19924;-66
2021/07/06 11:05:10;;;;;;;;;;;;;;;;;;5092544;28;19936;-66
2021/07/06 11:07:37;;;;;;;;;;;;;;;;;;5091166;28;20404;-66
2021/07/06 11:10:04;;;;;;;;;;;;;;;;;;5090236;28;20334;-66
2021/07/06 11:12:31;;;;;;;;;;;;;;;;;;5091859;28;20323;-66
2021/07/06 11:14:58;;;;;;;;;;;;;;;;;;5089540;28;20009;-65
2021/07/06 11:17:25;;;;;;;;;;;;;;;;;;5092172;28;19924;-67
2021/07/06 11:19:52;;;;;;;;;;;;;;;;;;5088991;28;19966;-67
2021/07/06 11:22:19;;;;;;;;;;;;;;;;;;5091078;28;20004;-66
2021/07/06 11:24:46;;;;;;;;;;;;;;;;;;5083717;28;19925;-66
2021/07/06 11:27:13;;;;;;;;;;;;;;;;;;5086450;28;19978;-67
2021/07/06 11:29:40;;;;;;;;;;;;;;;;;;5086895;28;19932;-66
2021/07/06 11:32:07;;;;;;;;;;;;;;;;;;5085430;28;20026;-67
2021/07/06 11:34:34;;;;;;;;;;;;;;;;;;5087068;28;20369;-67
2021/07/06 11:37:01;;;;;;;;;;;;;;;;;;5090369;28;19955;-66
2021/07/06 11:39:28;;;;;;;;;;;;;;;;;;5090340;28;19924;-67
2021/07/06 11:41:55;;;;;;;;;;;;;;;;;;5087648;28;19931;-66
2021/07/06 11:44:22;;;;;;;;;;;;;;;;;;5087852;28;19929;-66
2021/07/06 11:46:55;;;;;;;;;;;;;;;;;;5087188;28;19930;-66
2021/07/06 11:49:22;;;;;;;;;;;;;;;;;;5085307;28;19928;-67
2021/07/06 11:51:49;;;;;;;;;;;;;;;;;;5085738;28;19955;-65
2021/07/06 11:54:16;;;;;;;;;;;;;;;;;;5087414;28;19951;-65
2021/07/06 11:56:43;;;;;;;;;;;;;;;;;;5083436;28;19925;-66
2021/07/06 11:59:10;;;;;;;;;;;;;;;;;;5085941;28;21071;-66
2021/07/06 12:01:37;;;;;;;;;;;;;;;;;;5088734;28;20003;-67
2021/07/06 12:04:04;;;;;;;;;;;;;;;;;;5084141;28;19925;-66
2021/07/06 12:06:32;;;;;;;;;;;;;;;;;;5087866;28;19924;-68
2021/07/06 12:08:59;;;;;;;;;;;;;;;;;;5087738;28;19924;-67
2021/07/06 12:11:26;;;;;;;;;;;;;;;;;;5086926;28;20064;-66
2021/07/06 12:13:53;;;;;;;;;;;;;;;;;;5084782;28;19929;-67
2021/07/06 12:16:20;;;;;;;;;;;;;;;;;;5085935;28;20411;-66
2021/07/06 12:18:47;;;;;;;;;;;;;;;;;;5084957;28;20331;-66
2021/07/06 12:21:14;;;;;;;;;;;;;;;;;;5087984;28;19971;-66
2021/07/06 12:23:41;;;;;;;;;;;;;;;;;;5085390;28;20311;-66
2021/07/06 12:26:08;;;;;;;;;;;;;;;;;;5085026;28;19934;-67
2021/07/06 12:28:35;;;;;;;;;;;;;;;;;;5084072;28;20380;-66
2021/07/06 12:31:02;;;;;;;;;;;;;;;;;;5084046;28;19924;-66
2021/07/06 12:33:29;;;;;;;;;;;;;;;;;;5085310;28;19924;-66
2021/07/06 12:35:56;;;;;;;;;;;;;;;;;;5083002;28;19974;-66
2021/07/06 12:38:23;;;;;;;;;;;;;;;;;;5085650;28;19932;-66
2021/07/06 12:40:50;;;;;;;;;;;;;;;;;;5082462;28;19928;-66
2021/07/06 12:43:17;;;;;;;;;;;;;;;;;;5084451;28;19932;-66
2021/07/06 12:45:46;;;;;;;;;;;;;;;;;;5087042;28;19931;-65
2021/07/06 12:48:13;;;;;;;;;;;;;;;;;;5082411;28;19952;-66
2021/07/06 12:50:40;;;;;;;;;;;;;;;;;;5082015;28;19925;-65
2021/07/06 12:53:08;;;;;;;;;;;;;;;;;;5083619;28;20388;-65
2021/07/06 12:55:35;;;;;;;;;;;;;;;;;;5080640;28;20015;-65
2021/07/06 12:58:02;;;;;;;;;;;;;;;;;;5084585;28;19924;-65
2021/07/06 13:00:29;;;;;;;;;;;;;;;;;;5085215;28;20221;-66
2021/07/06 13:02:56;;;;;;;;;;;;;;;;;;5085322;28;19924;-65
2021/07/06 13:05:24;;;;;;;;;;;;;;;;;;5083826;28;19928;-65
2021/07/06 13:07:51;;;;;;;;;;;;;;;;;;5082726;28;19924;-65
2021/07/06 13:10:18;;;;;;;;;;;;;;;;;;5086355;28;19928;-65
2021/07/06 13:12:45;;;;;;;;;;;;;;;;;;5084250;28;19930;-65
2021/07/06 13:15:12;;;;;;;;;;;;;;;;;;5082723;28;20011;-66
2021/07/06 13:17:39;;;;;;;;;;;;;;;;;;5085209;28;19967;-65
2021/07/06 13:20:06;;;;;;;;;;;;;;;;;;5084885;28;20323;-65
2021/07/06 13:22:33;;;;;;;;;;;;;;;;;;5083708;28;19928;-65
2021/07/06 13:25:00;;;;;;;;;;;;;;;;;;5085201;28;20319;-65
2021/07/06 13:27:30;;;;;;;;;;;;;;;;;;5083310;28;19928;-66
2021/07/06 13:29:57;;;;;;;;;;;;;;;;;;5083820;28;19925;-65
2021/07/06 13:32:24;;;;;;;;;;;;;;;;;;5085319;28;20352;-65
2021/07/06 13:34:51;;;;;;;;;;;;;;;;;;5083260;28;19931;-66
2021/07/06 13:37:18;;;;;;;;;;;;;;;;;;5086894;28;20388;-63
2021/07/06 13:39:45;;;;;;;;;;;;;;;;;;5082355;28;21390;-63
2021/07/06 13:42:12;;;;;;;;;;;;;;;;;;5079010;28;19931;-63
2021/07/06 13:44:39;;;;;;;;;;;;;;;;;;5082841;28;19928;-64
2021/07/06 13:47:06;;;;;;;;;;;;;;;;;;5081763;28;19924;-63
2021/07/06 13:49:33;;;;;;;;;;;;;;;;;;5082980;28;20300;-63
2021/07/06 13:52:00;;;;;;;;;;;;;;;;;;5084310;28;19924;-63
2021/07/06 13:54:28;;;;;;;;;;;;;;;;;;5083848;28;19932;-62
2021/07/06 13:56:57;;;;;;;;;;;;;;;;;;5082446;28;19946;-63
2021/07/06 13:59:24;;;;;;;;;;;;;;;;;;5085543;28;19981;-63
2021/07/06 14:01:51;;;;;;;;;;;;;;;;;;5082161;28;20308;-64
2021/07/06 14:04:18;;;;;;;;;;;;;;;;;;5081278;28;19924;-63
2021/07/06 14:06:45;;;;;;;;;;;;;;;;;;5084173;28;20011;-65
2021/07/06 14:09:12;;;;;;;;;;;;;;;;;;5084003;28;19971;-63
2021/07/06 14:11:39;;;;;;;;;;;;;;;;;;5083527;28;19931;-63
2021/07/06 14:14:06;;;;;;;;;;;;;;;;;;5080432;28;21153;-65
2021/07/06 14:16:33;;;;;;;;;;;;;;;;;;5085066;28;19932;-64
2021/07/06 14:19:00;;;;;;;;;;;;;;;;;;5083639;28;19930;-65
2021/07/06 14:21:27;;;;;;;;;;;;;;;;;;5082433;28;19925;-63
2021/07/06 14:23:53;;;;;;;;;;;;;;;;;;5083216;28;19928;-63
2021/07/06 14:26:20;;;;;;;;;;;;;;;;;;5085444;28;19929;-64
2021/07/06 14:28:51;;;;;;;;;;;;;;;;;;5082821;28;19925;-65
2021/07/06 14:31:18;;;;;;;;;;;;;;;;;;5080343;28;20011;-65
2021/07/06 14:33:45;;;;;;;;;;;;;;;;;;5085145;28;19924;-65
2021/07/06 14:36:12;;;;;;;;;;;;;;;;;;5083686;28;19930;-64
2021/07/06 14:38:39;;;;;;;;;;;;;;;;;;5084135;28;19935;-64
2021/07/06 14:41:06;;;;;;;;;;;;;;;;;;5084055;28;19924;-64
2021/07/06 14:43:33;;;;;;;;;;;;;;;;;;5082017;28;19933;-64
2021/07/06 14:46:00;;;;;;;;;;;;;;;;;;5084381;28;20291;-65
2021/07/06 14:48:27;;;;;;;;;;;;;;;;;;5083438;28;21448;-65
2021/07/06 14:50:54;;;;;;;;;;;;;;;;;;5083790;28;20302;-65
2021/07/06 14:53:21;;;;;;;;;;;;;;;;;;5084648;28;19931;-64
2021/07/06 14:55:48;;;;;;;;;;;;;;;;;;5082578;28;19924;-64
2021/07/06 14:58:15;;;;;;;;;;;;;;;;;;5082870;28;19935;-65
2021/07/06 15:00:42;;;;;;;;;;;;;;;;;;5089667;28;19931;-64
2021/07/06 15:03:09;;;;;;;;;;;;;;;;;;5084866;28;19924;-66
2021/07/06 15:05:36;;;;;;;;;;;;;;;;;;5088073;28;20287;-65
2021/07/06 15:08:03;;;;;;;;;;;;;;;;;;5087404;28;19932;-63
2021/07/06 15:10:30;;;;;;;;;;;;;;;;;;5088173;28;19928;-64
2021/07/06 15:12:59;;;;;;;;;;;;;;;;;;5086068;28;19925;-64
2021/07/06 15:15:26;;;;;;;;;;;;;;;;;;5084197;28;19931;-66
2021/07/06 15:17:53;;;;;;;;;;;;;;;;;;5089230;28;19929;-64
2021/07/06 15:20:21;;;;;;;;;;;;;;;;;;5085019;28;20304;-66
2021/07/06 15:22:48;;;;;;;;;;;;;;;;;;5084382;28;19939;-65
2021/07/06 15:25:16;;;;;;;;;;;;;;;;;;5088982;28;19982;-65
2021/07/06 15:27:43;;;;;;;;;;;;;;;;;;5084604;28;19924;-65
2021/07/06 15:30:10;;;;;;;;;;;;;;;;;;5086342;28;19931;-65
2021/07/06 15:32:38;;;;;;;;;;;;;;;;;;5086273;28;19930;-65
2021/07/06 15:35:05;;;;;;;;;;;;;;;;;;5087398;28;19967;-66
2021/07/06 15:37:32;;;;;;;;;;;;;;;;;;5086087;28;21487;-67
2021/07/06 15:39:59;;;;;;;;;;;;;;;;;;5085103;28;19931;-67
2021/07/06 15:42:26;;;;;;;;;;;;;;;;;;5088433;28;19981;-68
2021/07/06 15:44:53;;;;;;;;;;;;;;;;;;5084420;28;20015;-67
2021/07/06 15:47:20;;;;;;;;;;;;;;;;;;5088060;28;19930;-67
2021/07/06 15:49:47;;;;;;;;;;;;;;;;;;5083714;28;19932;-68
2021/07/06 15:52:14;;;;;;;;;;;;;;;;;;5085999;28;19935;-67
2021/07/06 15:54:41;;;;;;;;;;;;;;;;;;5088449;28;19932;-67
2021/07/06 15:57:08;;;;;;;;;;;;;;;;;;5084281;28;20383;-67
2021/07/06 15:59:35;;;;;;;;;;;;;;;;;;5088847;28;19932;-68
2021/07/06 16:02:02;;;;;;;;;;;;;;;;;;5085821;28;20322;-68
2021/07/06 16:04:30;;;;;;;;;;;;;;;;;;5087264;28;20028;-68
2021/07/06 16:06:57;;;;;;;;;;;;;;;;;;5085472;28;19977;-66
2021/07/06 16:09:24;;;;;;;;;;;;;;;;;;5086366;28;19938;-66
2021/07/06 16:11:51;;;;;;;;;;;;;;;;;;5086721;28;20305;-67
2021/07/06 16:14:18;;;;;;;;;;;;;;;;;;5084882;28;20019;-67
2021/07/06 16:16:45;;;;;;;;;;;;;;;;;;5088292;28;19930;-67
2021/07/06 16:19:12;;;;;;;;;;;;;;;;;;5085260;28;19935;-66
2021/07/06 16:21:39;;;;;;;;;;;;;;;;;;5085543;28;19932;-67
2021/07/06 16:24:06;;;;;;;;;;;;;;;;;;5088065;28;19994;-68
2021/07/06 16:26:33;;;;;;;;;;;;;;;;;;5088477;28;20388;-68
2021/07/06 16:29:00;;;;;;;;;;;;;;;;;;5087262;28;19988;-67
2021/07/06 16:31:27;;;;;;;;;;;;;;;;;;5085228;28;19938;-66
2021/07/06 16:33:54;;;;;;;;;;;;;;;;;;5086972;28;20412;-66
2021/07/06 16:36:21;;;;;;;;;;;;;;;;;;5085856;28;19939;-66
2021/07/06 16:38:48;;;;;;;;;;;;;;;;;;5086552;28;19939;-68
2021/07/06 16:41:20;;;;;;;;;;;;;;;;;;5084376;28;19928;-68
2021/07/06 16:43:47;;;;;;;;;;;;;;;;;;5089100;28;20020;-68
2021/07/06 16:46:14;;;;;;;;;;;;;;;;;;5084981;28;19935;-68